Time;durP1;ratioP1;P1;durP2;ratioP2;P2;SDS_P1;SDS_P2;PMS_P1;PMS_P2;Temp;Humidity;BMP_temperature;BMP_pressure;BME280_temperature;BME280_humidity;BME280_pressure;Samples;Min_cycle;Max_cycle;Signal;HPM_P1;HPM_P2
2023/10/02 00:01:06;;;;;;;18.55;9.15;;;;;;;18.81;83.09;101942.19;5093227;28;20043;-60
2023/10/02 00:03:31;;;;;;;19.52;9.20;;;;;;;18.83;82.93;101936.81;5092847;28;20435;-60
2023/10/02 00:05:57;;;;;;;22.80;10.27;;;;;;;18.84;82.80;101938.59;5092655;28;20544;-61
2023/10/02 00:08:31;;;;;;;18.08;9.32;;;;;;;18.83;82.63;101937.69;5092810;28;20032;-59
2023/10/02 00:11:35;;;;;;;19.10;9.13;;;;;;;18.88;82.73;101934.97;5091366;28;20040;-61
2023/10/02 00:14:23;;;;;;;22.83;9.38;;;;;;;18.84;83.05;101930.53;5092647;28;20044;-60
2023/10/02 00:16:59;;;;;;;17.58;9.05;;;;;;;18.84;83.03;101930.53;5092982;28;20036;-61
2023/10/02 00:19:36;;;;;;;20.80;9.57;;;;;;;18.82;82.83;101943.97;5092787;28;20446;-60
2023/10/02 00:22:07;;;;;;;20.70;10.45;;;;;;;18.80;82.94;101936.81;5092647;28;20105;-61
2023/10/02 00:24:37;;;;;;;20.77;10.00;;;;;;;18.76;82.70;101931.50;5092502;28;20500;-60
2023/10/02 00:27:05;;;;;;;18.75;9.02;;;;;;;18.76;82.75;101935.97;5092941;28;20055;-62
2023/10/02 00:29:31;;;;;;;19.30;9.45;;;;;;;18.77;83.10;101935.06;5092967;28;20095;-61
2023/10/02 00:31:57;;;;;;;20.10;9.60;;;;;;;18.74;83.14;101941.31;5092651;28;20036;-61
2023/10/02 00:34:31;;;;;;;21.15;9.13;;;;;;;18.76;82.74;101931.50;5092554;28;20043;-61
2023/10/02 00:37:06;;;;;;;20.27;8.98;;;;;;;18.73;83.33;101933.31;5092597;28;20039;-61
2023/10/02 00:39:35;;;;;;;19.83;9.98;;;;;;;18.67;83.46;101936.88;5092605;28;20028;-60
2023/10/02 00:44:58;;;;;;;22.48;9.43;;;;;;;18.74;83.29;101935.06;5075023;28;20416;-61
2023/10/02 00:47:38;;;;;;;18.63;9.27;;;;;;;18.72;83.17;101924.38;5093800;28;20021;-60
2023/10/02 00:50:10;;;;;;;19.40;9.50;;;;;;;18.69;82.77;101923.47;5096434;28;20519;-60
2023/10/02 00:52:42;;;;;;;19.50;9.18;;;;;;;18.78;82.41;101923.44;5096319;28;20040;-61
2023/10/02 00:55:10;;;;;;;18.88;9.25;;;;;;;18.70;81.74;101919.91;5096581;28;20020;-61
2023/10/02 00:57:39;;;;;;;19.92;9.65;;;;;;;18.66;82.43;101919.00;5096484;28;20042;-60
2023/10/02 01:00:06;;;;;;;19.02;8.57;;;;;;;18.69;83.16;101923.47;5096067;28;20065;-61
2023/10/02 01:02:35;;;;;;;18.73;9.20;;;;;;;18.65;82.89;101922.59;5096218;28;20077;-60
2023/10/02 01:05:03;;;;;;;17.55;8.63;;;;;;;18.67;81.74;101920.81;5096031;28;20545;-61
2023/10/02 01:07:33;;;;;;;16.77;8.93;;;;;;;18.51;81.62;101917.31;5096009;28;20028;-62
2023/10/02 01:10:07;;;;;;;16.40;8.50;;;;;;;18.48;82.68;101917.31;5095778;28;20035;-61
2023/10/02 01:12:43;;;;;;;23.83;9.63;;;;;;;18.43;83.02;101918.25;5096041;28;20024;-61
2023/10/02 01:15:11;;;;;;;19.88;9.75;;;;;;;18.47;82.89;101912.88;5095897;28;20127;-61
2023/10/02 01:17:40;;;;;;;19.98;9.27;;;;;;;18.43;83.38;101915.56;5095669;28;20042;-61
2023/10/02 01:20:20;;;;;;;19.55;9.07;;;;;;;18.42;83.73;101914.69;5095877;28;20103;-60
2023/10/02 01:22:51;;;;;;;20.75;9.02;;;;;;;18.41;83.76;101915.56;5095927;28;20035;-60
2023/10/02 01:25:20;;;;;;;19.58;9.60;;;;;;;18.44;84.18;101920.03;5095989;28;20031;-60
2023/10/02 01:27:48;;;;;;;18.77;9.07;;;;;;;18.39;83.80;101912.03;5095654;28;20028;-60
2023/10/02 01:30:24;;;;;;;18.30;9.30;;;;;;;18.43;84.03;101915.56;5095804;28;20043;-61
2023/10/02 01:33:16;;;;;;;20.25;9.63;;;;;;;18.36;84.01;101909.34;5095648;28;20067;-61
2023/10/02 01:35:48;;;;;;;19.92;8.98;;;;;;;18.32;84.37;101906.69;5095857;28;20024;-60
2023/10/02 01:38:29;;;;;;;18.15;9.32;;;;;;;18.41;83.95;101906.66;5095180;28;20039;-61
2023/10/02 01:41:06;;;;;;;19.23;9.27;;;;;;;18.30;83.46;101903.16;5095289;28;20024;-61
2023/10/02 01:43:43;;;;;;;17.88;9.23;;;;;;;18.30;85.07;101908.50;5095302;28;20066;-61
2023/10/02 01:46:10;;;;;;;20.25;9.32;;;;;;;18.27;84.75;101904.94;5095447;28;20028;-60
2023/10/02 01:48:36;;;;;;;21.15;9.23;;;;;;;18.29;84.88;101904.06;5095497;28;20028;-60
2023/10/02 01:51:21;;;;;;;17.88;9.30;;;;;;;18.31;84.42;101905.81;5095423;28;20095;-61
2023/10/02 01:53:54;;;;;;;18.52;9.13;;;;;;;18.37;84.17;101904.88;5095112;28;20073;-61
2023/10/02 01:56:22;;;;;;;23.25;9.60;;;;;;;18.35;84.36;101904.00;5095395;28;20024;-61
2023/10/02 01:58:48;;;;;;;19.52;9.02;;;;;;;18.32;84.38;101907.56;5095144;28;20024;-61
2023/10/02 02:01:15;;;;;;;19.58;8.88;;;;;;;18.23;84.20;101907.63;5095214;28;20092;-61
2023/10/02 02:03:46;;;;;;;20.02;8.93;;;;;;;18.19;83.73;101906.75;5095240;28;20032;-61
2023/10/02 02:06:16;;;;;;;14.38;7.60;;;;;;;18.13;84.17;101898.75;5095098;28;20036;-60
2023/10/02 02:08:43;;;;;;;20.55;9.75;;;;;;;18.18;85.02;101901.41;5094788;28;20176;-60
2023/10/02 02:11:16;;;;;;;19.52;8.80;;;;;;;18.18;84.65;101902.28;5094962;28;20072;-60
2023/10/02 02:13:49;;;;;;;22.23;9.38;;;;;;;18.13;85.02;101898.75;5095152;28;20381;-61
2023/10/02 02:16:25;;;;;;;14.82;8.48;;;;;;;18.16;84.42;101905.88;5094874;28;20024;-60
2023/10/02 02:18:55;;;;;;;16.95;8.23;;;;;;;18.04;84.74;101903.25;5094731;28;20028;-60
2023/10/02 02:21:24;;;;;;;18.42;9.27;;;;;;;18.03;84.51;101902.38;5094940;28;20492;-61
2023/10/02 02:24:03;;;;;;;16.05;8.57;;;;;;;18.07;84.56;101895.19;5094781;28;20095;-60
2023/10/02 02:26:33;;;;;;;17.92;8.77;;;;;;;18.00;84.80;101897.91;5094901;28;20086;-61
2023/10/02 02:29:00;;;;;;;22.45;9.02;;;;;;;18.02;85.06;101890.75;5094778;28;20032;-60
2023/10/02 02:31:39;;;;;;;21.75;8.98;;;;;;;18.12;85.16;101891.63;5094577;28;20028;-60
2023/10/02 02:34:14;;;;;;;20.33;8.75;;;;;;;18.13;85.00;101897.88;5094348;28;20040;-60
2023/10/02 02:36:41;;;;;;;17.83;8.90;;;;;;;18.14;84.81;101889.81;5094212;28;20024;-60
2023/10/02 02:39:17;;;;;;;21.15;9.02;;;;;;;18.10;84.75;101898.75;5094161;28;20080;-60
2023/10/02 02:41:43;;;;;;;17.73;8.77;;;;;;;18.02;83.66;101904.13;5094099;28;20067;-60
2023/10/02 02:44:29;;;;;;;15.50;8.43;;;;;;;18.06;83.76;101896.09;5094256;28;20056;-60
2023/10/02 02:46:55;;;;;;;20.98;9.65;;;;;;;18.03;84.21;101886.31;5094112;28;20075;-61
2023/10/02 02:49:25;;;;;;;19.08;8.98;;;;;;;18.00;83.84;101883.63;5094071;28;20039;-61
2023/10/02 02:51:55;;;;;;;20.50;8.45;;;;;;;17.93;82.88;101884.53;5094367;28;20040;-60
2023/10/02 02:54:25;;;;;;;20.25;9.20;;;;;;;17.92;84.41;101885.44;5094119;28;20044;-60
2023/10/02 02:56:56;;;;;;;18.92;9.77;;;;;;;17.84;84.30;101879.22;5093895;28;20035;-60
2023/10/02 02:59:26;;;;;;;18.70;8.77;;;;;;;17.77;84.13;101875.66;5093896;28;20046;-61
2023/10/02 03:02:08;;;;;;;19.98;8.52;;;;;;;17.74;85.24;101883.72;5093883;28;20293;-61
2023/10/02 03:04:35;;;;;;;18.33;9.40;;;;;;;17.65;86.04;101879.25;5093733;28;20035;-61
2023/10/02 03:07:09;;;;;;;18.48;8.55;;;;;;;17.59;86.28;101873.00;5094062;28;20043;-61
2023/10/02 03:09:35;;;;;;;16.77;8.65;;;;;;;17.53;86.94;101876.59;5093386;28;20040;-61
2023/10/02 03:12:03;;;;;;;18.98;9.20;;;;;;;17.48;87.90;101875.72;5093543;28;20409;-59
2023/10/02 03:14:32;;;;;;;21.02;9.18;;;;;;;17.42;88.20;101870.34;5093846;28;20070;-59
2023/10/02 03:17:22;;;;;;;15.82;8.82;;;;;;;17.38;87.27;101866.78;5093568;28;20032;-60
2023/10/02 03:19:45;;;;;;;19.40;8.65;;;;;;;17.31;86.58;101859.69;5092261;28;20040;-61
2023/10/02 03:22:11;;;;;;;20.63;9.10;;;;;;;17.32;87.12;101858.78;5093721;28;20038;-61
2023/10/02 03:24:39;;;;;;;18.38;8.80;;;;;;;17.33;87.47;101852.56;5091891;28;20123;-60
2023/10/02 03:27:08;;;;;;;20.52;8.73;;;;;;;17.30;87.71;101851.66;5093396;28;20490;-60
2023/10/02 03:29:34;;;;;;;17.60;8.85;;;;;;;17.31;87.19;101849.00;5093343;28;20484;-60
2023/10/02 03:32:00;;;;;;;19.38;9.10;;;;;;;17.38;86.94;101860.56;5092128;28;20116;-60
2023/10/02 03:34:29;;;;;;;19.08;8.80;;;;;;;17.34;87.60;101854.31;5091970;28;20039;-61
2023/10/02 03:42:25;;;;;;;18.73;9.00;;;;;;;17.36;87.04;101857.91;5093443;28;20662;-60
2023/10/02 03:44:56;;;;;;;17.92;8.85;;;;;;;17.34;87.91;101850.75;5093032;28;20035;-59
2023/10/02 03:47:23;;;;;;;21.90;9.67;;;;;;;17.36;87.77;101857.91;5093168;28;20078;-60
2023/10/02 03:49:50;;;;;;;18.77;8.98;;;;;;;17.39;88.22;101852.56;5093184;28;20262;-60
2023/10/02 03:52:19;;;;;;;20.48;9.02;;;;;;;17.39;87.93;101857.03;5093070;28;20028;-61
2023/10/02 03:54:45;;;;;;;21.23;9.60;;;;;;;17.39;88.07;101862.38;5093101;28;20028;-61
2023/10/02 04:02:58;;;;;;;19.58;8.60;;;;;;;17.34;86.68;101857.00;5081910;28;20048;-60
2023/10/02 04:05:31;;;;;;;20.98;9.05;;;;;;;17.35;86.87;101855.25;5093063;28;20032;-60
2023/10/02 04:08:13;;;;;;;;;;;;;;;17.47;85.80;101858.78;5093081;28;20482;-60
2023/10/02 04:10:51;;;;;;;18.40;9.27;;;;;;;17.37;87.27;101857.00;5092953;28;19908;-61
2023/10/02 04:13:21;;;;;;;20.75;8.73;;;;;;;17.31;86.69;101859.69;5092771;28;20036;-60
2023/10/02 04:15:47;;;;;;;18.45;9.30;;;;;;;17.35;87.18;101866.81;5092733;28;20063;-60
2023/10/02 04:18:45;;;;;;;19.13;9.25;;;;;;;17.28;86.71;101857.00;5092730;28;20028;-60
2023/10/02 04:21:08;;;;;;;16.60;8.43;;;;;;;17.31;86.38;101851.69;5092551;28;20075;-61
2023/10/02 04:23:38;;;;;;;21.85;9.32;;;;;;;17.31;87.66;101862.38;5096136;28;20050;-60
2023/10/02 04:26:05;;;;;;;17.98;9.15;;;;;;;17.25;87.29;101859.69;5096975;28;20042;-60
2023/10/02 04:28:38;;;;;;;19.17;9.70;;;;;;;17.20;88.05;101857.00;5095811;28;20036;-60
2023/10/02 04:31:06;;;;;;;18.00;8.88;;;;;;;17.16;87.51;101857.91;5096722;28;20044;-60
2023/10/02 04:33:37;;;;;;;19.33;9.05;;;;;;;17.12;86.86;101850.78;5096644;28;20044;-59
2023/10/02 04:36:05;;;;;;;20.33;9.23;;;;;;;17.15;88.05;101860.59;5096900;28;20082;-60
2023/10/02 04:41:26;;;;;;;20.63;9.18;;;;;;;17.05;88.28;101854.38;5095239;28;20066;-60
2023/10/02 04:43:57;;;;;;;20.52;9.13;;;;;;;17.02;88.74;101859.69;5095191;28;20126;-60
2023/10/02 04:46:26;;;;;;;20.27;8.95;;;;;;;16.93;88.72;101854.34;5094992;28;20038;-60
2023/10/02 04:48:59;;;;;;;21.10;9.27;;;;;;;16.98;89.10;101847.22;5095035;28;20078;-61
2023/10/02 04:51:28;;;;;;;18.83;8.15;;;;;;;16.97;88.71;101848.13;5095139;28;20385;-61
2023/10/02 04:53:57;;;;;;;22.20;9.18;;;;;;;16.93;89.93;101855.25;5094744;28;20469;-60
2023/10/02 04:56:26;;;;;;;19.90;9.68;;;;;;;16.92;89.63;101850.78;5094907;28;20025;-61
2023/10/02 04:58:57;;;;;;;20.67;9.45;;;;;;;16.99;89.34;101854.34;5094917;28;20028;-60
2023/10/02 05:01:41;;;;;;;21.00;9.15;;;;;;;16.98;89.18;101853.47;5095166;28;20077;-61
2023/10/02 05:04:07;;;;;;;17.00;8.50;;;;;;;17.04;87.90;101841.88;5094636;28;20036;-61
2023/10/02 05:06:43;;;;;;;21.80;9.40;;;;;;;17.00;88.44;101837.41;5094829;28;20028;-60
2023/10/02 05:11:52;;;;;;;21.73;10.32;;;;;;;17.00;88.98;101849.03;5094553;28;20036;-60
2023/10/02 05:14:28;;;;;;;19.90;8.77;;;;;;;16.95;87.79;101844.56;5094766;28;20035;-60
2023/10/02 05:19:56;;;;;;;20.65;8.85;;;;;;;16.95;87.15;101855.22;5094827;28;20487;-60
2023/10/02 05:22:27;;;;;;;17.35;8.73;;;;;;;16.88;87.28;101851.69;5094812;28;20024;-60
2023/10/02 05:25:04;;;;;;;18.73;9.00;;;;;;;16.80;87.87;101852.56;5094491;28;20073;-61
2023/10/02 05:27:36;;;;;;;21.27;8.95;;;;;;;16.78;89.19;101856.09;5094517;28;20035;-60
2023/10/02 05:30:17;;;;;;;21.20;9.95;;;;;;;16.71;89.24;101850.75;5094318;28;20024;-61
2023/10/02 05:32:43;;;;;;;21.92;9.32;;;;;;;16.71;89.41;101859.63;5093990;28;20035;-60
2023/10/02 05:37:39;;;;;;;19.90;9.18;;;;;;;16.80;89.20;101857.91;5055330;28;1101608;-61
2023/10/02 05:43:09;;;;;;;20.73;9.38;;;;;;;16.86;89.13;101866.78;5095229;28;20149;-60
2023/10/02 05:50:52;;;;;;;20.95;9.02;;;;;;;16.85;87.58;101859.69;5094876;28;20066;-60
2023/10/02 05:53:20;;;;;;;21.88;9.65;;;;;;;16.92;89.01;101872.16;5094831;28;20032;-61
2023/10/02 05:58:35;;;;;;;18.63;8.77;;;;;;;16.96;88.40;101876.63;5095097;28;20455;-59
2023/10/02 06:01:04;;;;;;;21.38;10.23;;;;;;;16.93;89.07;101884.59;5094845;28;20335;-60
2023/10/02 06:03:36;;;;;;;19.90;8.55;;;;;;;16.93;87.47;101881.06;5094761;28;20051;-61
2023/10/02 06:06:15;;;;;;;16.15;8.02;;;;;;;16.99;87.26;101887.28;5094493;28;20036;-60
2023/10/02 06:08:48;;;;;;;20.08;8.70;;;;;;;17.01;87.08;101876.63;5094416;28;20072;-60
2023/10/02 06:11:27;;;;;;;18.00;8.63;;;;;;;17.05;87.90;101875.72;5094465;28;20060;-59
2023/10/02 06:13:55;;;;;;;19.00;9.60;;;;;;;17.11;88.46;101875.72;5094755;28;20377;-60
2023/10/02 06:16:26;;;;;;;21.30;9.80;;;;;;;17.10;88.63;101878.41;5094328;28;20020;-60
2023/10/02 06:19:01;;;;;;;22.27;9.57;;;;;;;17.07;88.87;101879.28;5094658;28;20040;-60
2023/10/02 06:21:46;;;;;;;21.30;9.38;;;;;;;17.18;88.76;101872.16;5094563;28;20054;-60
2023/10/02 06:24:17;;;;;;;23.67;10.13;;;;;;;17.21;88.70;101874.81;5094511;28;20024;-60
2023/10/02 06:26:58;;;;;;;21.85;10.13;;;;;;;17.19;89.22;101881.94;5078142;28;20044;-59
2023/10/02 06:29:33;;;;;;;19.70;9.57;;;;;;;17.16;89.51;101881.94;5074015;28;20086;-60
2023/10/02 06:31:59;;;;;;;23.90;10.48;;;;;;;17.26;89.18;101883.75;5073749;28;20024;-60
2023/10/02 06:34:38;;;;;;;22.67;10.93;;;;;;;17.32;89.08;101882.84;5073851;28;20520;-60
2023/10/02 06:37:19;;;;;;;20.17;10.38;;;;;;;17.41;89.15;101882.81;5072493;28;20111;-60
2023/10/02 06:40:13;;;;;;;26.40;10.45;;;;;;;17.48;89.23;101881.94;5073440;28;20545;-60
2023/10/02 06:42:50;;;;;;;24.63;11.60;;;;;;;17.56;88.81;101883.69;5073838;28;20118;-60
2023/10/02 06:45:21;;;;;;;23.40;9.70;;;;;;;17.68;88.71;101889.03;5073049;28;20035;-60
2023/10/02 06:47:48;;;;;;;25.90;10.35;;;;;;;17.86;87.88;101890.78;5073706;28;20111;-60
2023/10/02 06:50:34;;;;;;;24.55;10.88;;;;;;;17.93;87.90;101879.19;5073431;28;20040;-61
2023/10/02 06:53:00;;;;;;;25.83;11.25;;;;;;;18.11;87.22;101889.81;5073419;28;20036;-61
2023/10/02 06:55:26;;;;;;;23.15;10.80;;;;;;;18.20;87.13;101895.16;5073590;28;20028;-61
2023/10/02 06:57:56;;;;;;;24.08;11.43;;;;;;;18.24;87.38;101902.28;5073538;28;20390;-60
2023/10/02 07:00:23;;;;;;;27.10;11.95;;;;;;;18.35;87.48;101893.31;5073554;28;20040;-59
2023/10/02 07:02:58;;;;;;;24.88;10.38;;;;;;;18.44;87.45;101893.25;5073175;28;20158;-60
2023/10/02 07:05:27;;;;;;;26.92;11.77;;;;;;;18.51;87.65;101887.00;5073045;28;20466;-60
2023/10/02 07:08:01;;;;;;;23.15;11.27;;;;;;;18.58;87.27;101883.34;5073132;28;20035;-61
2023/10/02 07:10:41;;;;;;;28.40;11.02;;;;;;;18.79;85.73;101881.50;5072993;28;20481;-60
2023/10/02 07:13:18;;;;;;;25.65;10.52;;;;;;;18.87;85.31;101883.22;5073095;28;20442;-60
2023/10/02 07:15:48;;;;;;;23.83;11.07;;;;;;;19.02;85.29;101885.78;5073040;28;20427;-61
2023/10/02 07:18:16;;;;;;;24.75;11.45;;;;;;;19.13;84.88;101883.00;5073033;28;20483;-60
2023/10/02 07:20:52;;;;;;;23.98;11.35;;;;;;;19.20;84.33;101881.19;5073241;28;20032;-61
2023/10/02 07:23:22;;;;;;;30.45;11.68;;;;;;;19.29;84.43;101881.09;5072903;28;20142;-60
2023/10/02 07:25:53;;;;;;;29.90;11.77;;;;;;;19.46;84.33;101887.19;5072640;28;20087;-60
2023/10/02 07:28:22;;;;;;;25.03;11.60;;;;;;;19.65;83.82;101876.31;5072893;28;20463;-60
2023/10/02 07:30:50;;;;;;;24.75;11.50;;;;;;;19.75;81.46;101878.03;5072685;28;20056;-60
2023/10/02 07:33:19;;;;;;;24.35;10.93;;;;;;;19.93;82.77;101869.75;5071513;28;20029;-60
2023/10/02 07:35:52;;;;;;;24.38;11.98;;;;;;;20.01;80.75;101875.91;5072606;28;20021;-60
2023/10/02 07:38:30;;;;;;;29.27;12.10;;;;;;;20.17;82.08;101879.31;5091470;28;20409;-60
2023/10/02 07:41:08;;;;;;;27.00;11.73;;;;;;;20.26;80.48;101886.38;5092846;28;20032;-60
2023/10/02 07:43:34;;;;;;;24.50;11.32;;;;;;;20.17;80.34;101881.09;5092975;28;20028;-61
2023/10/02 07:46:14;;;;;;;22.35;10.90;;;;;;;20.18;80.42;101886.47;5092886;28;20109;-61
2023/10/02 07:48:55;;;;;;;25.92;11.85;;;;;;;20.11;80.37;101883.84;5092847;28;20469;-60
2023/10/02 07:51:30;;;;;;;23.52;11.40;;;;;;;20.14;80.52;101883.84;5092908;28;20077;-60
2023/10/02 07:53:58;;;;;;;24.42;11.32;;;;;;;20.14;80.40;101889.19;5092961;28;20089;-61
2023/10/02 07:56:24;;;;;;;23.58;11.80;;;;;;;20.05;81.17;101881.25;5092468;28;20122;-60
2023/10/02 07:59:01;;;;;;;24.42;12.07;;;;;;;20.05;81.07;101878.59;5092669;28;20032;-60
2023/10/02 08:01:33;;;;;;;27.00;11.93;;;;;;;19.99;81.30;101877.72;5092878;28;20038;-61
2023/10/02 08:04:00;;;;;;;25.13;12.10;;;;;;;20.08;80.56;101878.53;5092608;28;20038;-61
2023/10/02 08:06:41;;;;;;;25.00;12.10;;;;;;;19.97;80.74;101873.31;5092407;28;20488;-60
2023/10/02 08:11:52;;;;;;;26.73;12.23;;;;;;;19.84;80.64;101880.59;5092567;28;20070;-60
2023/10/02 08:19:54;;;;;;;26.10;11.88;;;;;;;19.92;81.98;101889.44;5091690;28;20498;-61
2023/10/02 08:22:23;;;;;;;24.08;12.05;;;;;;;20.21;81.33;101891.78;5092739;28;20036;-60
2023/10/02 08:24:52;;;;;;;27.95;11.98;;;;;;;20.68;80.88;101894.75;5092154;28;20050;-60
2023/10/02 08:27:18;;;;;;;30.08;12.10;;;;;;;21.02;77.43;101896.03;5092443;28;20063;-60
2023/10/02 08:29:44;;;;;;;28.65;12.57;;;;;;;21.21;77.34;101898.44;5092300;28;20027;-61
2023/10/02 08:32:10;;;;;;;30.75;13.18;;;;;;;21.58;76.98;101895.13;5092644;28;20024;-61
2023/10/02 08:34:36;;;;;;;24.15;11.93;;;;;;;21.67;73.13;101898.56;5111315;28;20485;-61
2023/10/02 08:37:05;;;;;;;27.13;11.95;;;;;;;22.15;73.12;101894.97;5112702;28;20036;-60
2023/10/02 08:39:38;;;;;;;28.23;12.25;;;;;;;22.54;72.40;101901.31;5110920;28;20048;-61
2023/10/02 08:42:14;;;;;;;28.98;11.95;;;;;;;22.82;70.18;101898.84;5112464;28;20480;-61
2023/10/02 08:44:42;;;;;;;29.85;12.23;;;;;;;23.19;68.80;101892.63;5112487;28;20032;-60
2023/10/02 08:47:12;;;;;;;26.67;12.23;;;;;;;23.55;67.17;101884.50;5112875;28;20046;-60
2023/10/02 08:49:40;;;;;;;29.55;12.13;;;;;;;23.68;67.24;101891.34;5112409;28;20036;-61
2023/10/02 08:52:13;;;;;;;24.83;11.75;;;;;;;23.83;67.27;101890.06;5112502;28;20051;-61
2023/10/02 08:54:44;;;;;;;25.95;11.98;;;;;;;24.10;64.21;101889.28;5112517;28;20473;-60
2023/10/02 08:57:10;;;;;;;25.40;12.07;;;;;;;24.35;64.08;101893.97;5112538;28;20028;-61
2023/10/02 08:59:39;;;;;;;34.05;12.25;;;;;;;24.47;63.50;101878.28;5112449;28;20069;-62
2023/10/02 09:02:15;;;;;;;25.08;12.23;;;;;;;24.44;64.23;101872.09;5111251;28;20089;-60
2023/10/02 09:04:51;;;;;;;26.00;11.52;;;;;;;24.18;63.90;101870.16;5112479;28;20127;-61
2023/10/02 09:07:44;;;;;;;27.20;12.02;;;;;;;24.04;65.83;101865.16;5112219;28;20040;-61
2023/10/02 09:10:24;;;;;;;28.35;11.98;;;;;;;24.05;65.09;101868.75;5115200;28;20150;-61
2023/10/02 09:13:11;;;;;;;24.73;11.52;;;;;;;24.02;66.95;101864.31;5116130;28;20059;-61
2023/10/02 09:15:37;;;;;;;24.83;11.88;;;;;;;23.99;66.91;101867.13;5116059;28;20039;-59
2023/10/02 09:18:22;;;;;;;25.40;11.93;;;;;;;23.94;65.52;101866.38;5114493;28;20325;-60
2023/10/02 09:21:13;;;;;;;23.63;11.77;;;;;;;23.69;66.46;101874.25;5116253;28;20085;-61
2023/10/02 09:23:51;;;;;;;28.08;11.70;;;;;;;23.57;67.19;101883.53;5115593;28;20509;-60
2023/10/02 09:26:16;;;;;;;29.48;12.38;;;;;;;23.46;67.55;101880.22;5116119;28;20127;-61
2023/10/02 09:28:56;;;;;;;25.55;12.35;;;;;;;23.34;68.34;101875.13;5115791;28;20106;-61
2023/10/02 09:31:24;;;;;;;26.60;12.00;;;;;;;23.40;67.69;101865.09;5116043;28;20032;-61
2023/10/02 09:33:51;;;;;;;24.65;12.27;;;;;;;23.35;68.09;101867.03;5104937;28;20062;-60
2023/10/02 09:36:19;;;;;;;23.25;11.77;;;;;;;23.32;67.45;101871.63;5095287;28;20119;-60
2023/10/02 09:38:46;;;;;;;25.88;12.27;;;;;;;23.19;67.92;101871.94;5094644;28;20192;-61
2023/10/02 09:41:15;;;;;;;25.85;12.73;;;;;;;23.11;68.15;101868.53;5094993;28;20024;-60
2023/10/02 09:43:41;;;;;;;28.98;12.40;;;;;;;22.96;69.32;101866.22;5094816;28;20095;-59
2023/10/02 09:46:21;;;;;;;28.77;13.18;;;;;;;22.94;69.51;101862.66;5094925;28;20385;-60
2023/10/02 09:48:46;;;;;;;26.58;12.45;;;;;;;22.77;69.72;101872.94;5095075;28;20047;-61
2023/10/02 09:51:37;;;;;;;26.25;12.45;;;;;;;22.83;70.42;101872.81;5095308;28;20473;-60
2023/10/02 09:54:09;;;;;;;29.60;12.57;;;;;;;22.81;71.11;101871.94;5094995;28;20075;-61
2023/10/02 09:56:54;;;;;;;28.67;13.30;;;;;;;23.09;71.96;101870.41;5095055;28;20034;-60
2023/10/02 09:59:23;;;;;;;29.25;13.35;;;;;;;23.64;68.62;101870.75;5094569;28;20043;-60
2023/10/02 10:02:07;;;;;;;31.25;13.07;;;;;;;23.97;69.08;101866.25;5094956;28;20035;-59
2023/10/02 10:10:45;;;;;;;28.20;13.02;;;;;;;24.68;65.56;101865.06;5094221;28;20528;-60
2023/10/02 10:13:32;;;;;;;25.67;12.88;;;;;;;25.06;64.85;101869.22;5094730;28;20105;-61
2023/10/02 10:16:23;;;;;;;28.60;13.07;;;;;;;25.12;64.70;101862.75;5094314;28;20023;-60
2023/10/02 10:19:22;;;;;;;28.63;13.07;;;;;;;25.04;63.02;101852.13;5094382;28;20039;-60
2023/10/02 10:21:57;;;;;;;26.52;12.70;;;;;;;25.21;63.25;101852.47;5093492;28;20501;-60
2023/10/02 10:25:02;;;;;;;24.88;12.48;;;;;;;25.34;64.13;101849.34;5094139;28;20038;-59
2023/10/02 10:27:54;;;;;;;24.30;11.57;;;;;;;25.57;62.72;101844.03;5093707;28;20043;-60
2023/10/02 10:30:27;;;;;;;26.95;13.27;;;;;;;25.47;62.28;101846.16;5094055;28;20025;-61
2023/10/02 10:33:20;;;;;;;25.42;12.95;;;;;;;25.69;63.24;101832.72;5093932;28;20036;-62
2023/10/02 10:35:51;;;;;;;23.92;12.07;;;;;;;26.03;60.38;101842.34;5092651;28;20028;-61
2023/10/02 10:38:33;;;;;;;27.33;11.57;;;;;;;26.18;59.10;101840.88;5093659;28;20374;-62
2023/10/02 10:41:05;;;;;;;27.38;11.98;;;;;;;26.34;59.15;101846.59;5093862;28;20155;-62
2023/10/02 10:46:31;;;;;;;26.20;12.57;;;;;;;26.48;58.81;101832.53;5093973;28;19985;-61
2023/10/02 10:49:37;;;;;;;23.83;11.77;;;;;;;26.64;57.62;101836.41;5094025;28;20446;-61
2023/10/02 10:51:58;;;;;;;23.60;11.65;;;;;;;26.81;57.01;101828.47;5090694;28;20456;-61
2023/10/02 10:54:30;;;;;;;25.65;11.90;;;;;;;26.61;58.78;101831.09;5093535;28;20493;-61
2023/10/02 10:57:19;;;;;;;28.35;12.18;;;;;;;26.48;59.25;101825.28;5093809;28;20058;-62
2023/10/02 10:59:45;;;;;;;24.42;12.65;;;;;;;26.36;58.26;101823.03;5078004;28;20119;-60
2023/10/02 11:02:15;;;;;;;24.40;12.85;;;;;;;26.09;60.11;101820.44;5093625;28;20024;-61
2023/10/02 11:04:51;;;;;;;24.88;12.25;;;;;;;26.12;60.12;101825.75;5093357;28;20546;-62
2023/10/02 11:07:21;;;;;;;26.33;12.27;;;;;;;26.05;60.56;101823.34;5093536;28;20062;-61
2023/10/02 11:10:14;;;;;;;29.60;12.63;;;;;;;25.93;61.03;101816.56;5093169;28;20481;-61
2023/10/02 11:12:54;;;;;;;25.13;11.75;;;;;;;26.03;61.34;101817.97;5093558;28;20055;-61
2023/10/02 11:16:07;;;;;;;24.80;12.20;;;;;;;26.04;59.62;101821.56;5093286;28;20055;-62
2023/10/02 11:18:20;;;;;;;22.95;11.50;;;;;;;26.07;61.07;101819.63;5082257;28;20135;-61
2023/10/02 11:20:49;;;;;;;24.70;11.52;;;;;;;26.06;60.57;101812.44;5091790;28;20062;-61
2023/10/02 11:23:40;;;;;;;26.70;11.00;;;;;;;26.00;60.73;101800.97;5092033;28;20028;-61
2023/10/02 11:26:21;;;;;;;26.95;11.68;;;;;;;25.87;61.39;101806.84;5092936;28;20489;-61
2023/10/02 11:28:50;;;;;;;23.52;11.25;;;;;;;26.19;61.60;101802.00;5093169;28;20043;-61
2023/10/02 11:31:29;;;;;;;24.45;10.90;;;;;;;26.47;59.89;101796.41;5092582;28;20127;-62
2023/10/02 11:34:05;;;;;;;24.90;11.88;;;;;;;26.64;59.90;101791.19;5091770;28;20035;-61
2023/10/02 11:36:36;;;;;;;24.67;11.80;;;;;;;26.88;58.20;101789.25;5092940;28;20020;-61
2023/10/02 11:39:16;;;;;;;23.25;10.75;;;;;;;27.13;56.89;101789.13;5092900;28;20480;-62
2023/10/02 11:41:46;;;;;;;24.95;11.65;;;;;;;27.25;56.05;101785.00;5092869;28;20039;-62
2023/10/02 11:44:12;;;;;;;23.55;11.52;;;;;;;27.45;55.96;101790.44;5093022;28;20042;-60
2023/10/02 11:46:40;;;;;;;24.50;11.40;;;;;;;27.69;54.66;101785.69;5092923;28;20039;-61
2023/10/02 11:49:07;;;;;;;24.52;11.40;;;;;;;27.67;54.77;101786.75;5092816;28;20028;-62
2023/10/02 11:51:33;;;;;;;25.50;12.02;;;;;;;27.74;54.49;101776.50;5092956;28;20031;-61
2023/10/02 11:53:59;;;;;;;23.40;11.27;;;;;;;27.73;56.25;101772.91;5092679;28;20056;-62
2023/10/02 11:56:28;;;;;;;23.33;11.30;;;;;;;27.80;55.30;101768.97;5092527;28;20482;-61
2023/10/02 11:58:56;;;;;;;21.90;11.38;;;;;;;27.81;54.31;101765.28;5092685;28;20102;-61
2023/10/02 12:01:22;;;;;;;24.83;12.05;;;;;;;27.67;55.19;101760.47;5092597;28;20061;-62
2023/10/02 12:03:49;;;;;;;22.88;11.45;;;;;;;27.61;56.41;101768.00;5092499;28;20389;-61
2023/10/02 12:06:16;;;;;;;23.42;11.95;;;;;;;27.91;55.70;101760.28;5092440;28;20024;-61
2023/10/02 12:08:43;;;;;;;21.60;11.00;;;;;;;27.91;55.68;101755.72;5092274;28;20032;-62
2023/10/02 12:11:09;;;;;;;20.85;10.73;;;;;;;27.90;56.12;101762.13;5092704;28;20082;-62
2023/10/02 12:13:34;;;;;;;22.92;11.38;;;;;;;27.73;55.09;101755.72;5092684;28;20028;-62
2023/10/02 12:16:02;;;;;;;21.88;10.95;;;;;;;27.67;56.56;101751.44;5092455;28;20052;-62
2023/10/02 12:18:28;;;;;;;22.13;10.52;;;;;;;27.64;57.12;101751.56;5092386;28;20059;-61
2023/10/02 12:20:53;;;;;;;22.38;11.15;;;;;;;27.44;56.07;101747.91;5092426;28;20490;-62
2023/10/02 12:23:19;;;;;;;24.33;11.45;;;;;;;27.21;57.71;101748.97;5092467;28;20028;-62
2023/10/02 12:25:48;;;;;;;21.98;11.32;;;;;;;27.08;58.40;101736.88;5092399;28;20066;-62
2023/10/02 12:28:15;;;;;;;23.02;11.32;;;;;;;27.29;59.09;101742.31;5090835;28;20028;-61
2023/10/02 12:30:41;;;;;;;25.85;11.30;;;;;;;27.50;57.15;101741.34;5092295;28;20115;-62
2023/10/02 12:33:06;;;;;;;21.23;11.15;;;;;;;27.45;57.49;101740.66;5092231;28;20166;-61